createdAt,value
2022-08-03T00:01:26.567Z,19.86
2022-08-03T00:03:53.502Z,19.72
2022-08-03T00:06:20.379Z,19.46
2022-08-03T00:08:47.387Z,19.37
2022-08-03T00:11:14.249Z,19.42
2022-08-03T00:13:41.122Z,19.36
2022-08-03T00:16:08.588Z,19.34
2022-08-03T00:18:35.435Z,19.34
2022-08-03T00:21:02.615Z,19.24
2022-08-03T00:23:50.978Z,19.40
2022-08-03T00:26:16.336Z,19.26
2022-08-03T00:28:43.751Z,19.45
2022-08-03T00:31:13.729Z,19.37
2022-08-03T00:33:57.988Z,19.39
2022-08-03T00:36:26.195Z,19.16
2022-08-03T00:38:53.054Z,19.35
2022-08-03T00:41:20.489Z,19.41
2022-08-03T00:43:47.821Z,19.45
2022-08-03T00:46:19.217Z,19.47
2022-08-03T00:48:49.429Z,19.40
2022-08-03T00:51:16.521Z,19.09
2022-08-03T00:53:43.627Z,19.13
2022-08-03T00:56:14.508Z,19.27
2022-08-03T00:58:41.864Z,19.28
2022-08-03T01:01:08.764Z,18.95
2022-08-03T01:03:35.688Z,19.29
2022-08-03T01:06:19.738Z,19.39
2022-08-03T01:09:08.065Z,19.44
2022-08-03T01:12:01.131Z,19.46
2022-08-03T01:14:39.710Z,19.41
2022-08-03T01:17:15.513Z,19.42
2022-08-03T01:19:50.874Z,19.34
2022-08-03T01:22:23.725Z,19.18
2022-08-03T01:25:05.122Z,18.89
2022-08-03T01:28:16.180Z,18.89
2022-08-03T01:30:50.923Z,18.75
2022-08-03T01:33:21.226Z,18.89
2022-08-03T01:36:15.027Z,18.96
2022-08-03T01:38:44.982Z,18.93
2022-08-03T01:41:18.954Z,19.01
2022-08-03T01:44:26.515Z,18.90
2022-08-03T01:46:38.932Z,19.11
2022-08-03T01:49:11.828Z,19.09
2022-08-03T01:52:03.057Z,18.95
2022-08-03T01:54:30.517Z,18.89
2022-08-03T01:56:58.610Z,18.65
2022-08-03T01:59:26.655Z,18.60
2022-08-03T02:02:16.116Z,18.55
2022-08-03T02:04:42.706Z,18.68
2022-08-03T02:07:10.710Z,18.80
2022-08-03T02:09:39.485Z,18.86
2022-08-03T02:12:09.230Z,18.88
2022-08-03T02:14:37.131Z,18.87
2022-08-03T02:17:05.460Z,18.83
2022-08-03T02:19:35.755Z,18.83
2022-08-03T02:22:05.509Z,18.81
2022-08-03T02:24:32.845Z,18.75
2022-08-03T02:27:00.483Z,18.60
2022-08-03T02:29:40.109Z,18.62
2022-08-03T02:32:15.058Z,18.58
2022-08-03T02:34:45.370Z,18.57
2022-08-03T02:37:13.764Z,18.57
2022-08-03T02:39:42.656Z,18.59
2022-08-03T02:42:13.455Z,18.66
2022-08-03T02:44:41.623Z,18.76
2022-08-03T02:47:11.256Z,18.80
2022-08-03T02:49:50.544Z,18.79
2022-08-03T02:52:24.082Z,18.79
2022-08-03T02:54:53.942Z,18.65
2022-08-03T02:57:21.864Z,18.65
2022-08-03T02:59:49.899Z,18.68
2022-08-03T03:02:18.882Z,18.69
2022-08-03T03:05:53.146Z,18.60
2022-08-03T03:07:51.463Z,18.49
2022-08-03T03:10:22.942Z,18.43
2022-08-03T03:12:56.383Z,18.53
2022-08-03T03:15:24.912Z,18.66
2022-08-03T03:17:52.121Z,18.78
2022-08-03T03:20:29.838Z,18.84
2022-08-03T03:23:00.527Z,18.89
2022-08-03T03:25:29.296Z,18.95
2022-08-03T03:27:56.519Z,18.93
2022-08-03T03:30:25.337Z,18.88
2022-08-03T03:32:52.741Z,18.93
2022-08-03T03:35:19.808Z,18.94
2022-08-03T03:37:46.836Z,18.61
2022-08-03T03:40:14.735Z,18.39
2022-08-03T03:42:41.916Z,18.26
2022-08-03T03:45:09.451Z,18.27
2022-08-03T03:47:36.393Z,18.29
2022-08-03T03:50:07.572Z,18.21
2022-08-03T03:52:34.952Z,18.26
2022-08-03T03:55:01.991Z,18.44
2022-08-03T03:57:29.569Z,18.57
2022-08-03T03:59:56.793Z,18.33
2022-08-03T04:02:24.011Z,18.37
2022-08-03T04:05:09.635Z,19.03
2022-08-03T04:08:08.686Z,19.25
2022-08-03T04:10:54.886Z,19.70
2022-08-03T04:13:22.224Z,20.17
2022-08-03T04:15:50.112Z,19.39
2022-08-03T04:18:19.334Z,19.01
2022-08-03T04:20:48.258Z,19.01
2022-08-03T04:23:16.795Z,19.20
2022-08-03T04:25:44.188Z,19.28
2022-08-03T04:28:31.020Z,19.42
2022-08-03T04:31:00.217Z,19.55
2022-08-03T04:33:30.481Z,19.56
2022-08-03T04:36:02.534Z,19.64
2022-08-03T04:38:31.877Z,19.76
2022-08-03T04:40:59.734Z,20.26
2022-08-03T04:43:27.081Z,20.98
2022-08-03T04:45:55.006Z,21.45
2022-08-03T04:48:21.882Z,21.69
2022-08-03T04:50:49.279Z,22.50
2022-08-03T04:53:17.077Z,23.22
2022-08-03T04:55:44.189Z,23.97
2022-08-03T04:58:12.587Z,25.43
2022-08-03T05:00:39.485Z,26.69
2022-08-03T05:03:23.575Z,26.18
2022-08-03T05:06:01.859Z,25.35
2022-08-03T05:08:46.110Z,27.82
2022-08-03T05:11:15.861Z,28.66
2022-08-03T05:13:43.263Z,27.23
2022-08-03T05:16:10.291Z,27.50
2022-08-03T05:18:37.340Z,26.68
2022-08-03T05:21:05.106Z,25.91
2022-08-03T05:23:32.110Z,25.97
2022-08-03T05:25:59.021Z,26.44
2022-08-03T05:28:25.902Z,26.32
2022-08-03T05:30:52.824Z,25.90
2022-08-03T05:33:19.667Z,25.89
2022-08-03T05:36:00.652Z,25.97
2022-08-03T05:38:34.620Z,25.46
2022-08-03T05:41:23.315Z,25.61
2022-08-03T05:43:54.805Z,25.54
2022-08-03T05:46:22.867Z,25.79
2022-08-03T05:48:49.998Z,25.67
2022-08-03T05:51:17.112Z,25.14
2022-08-03T05:53:44.184Z,25.89
2022-08-03T05:56:14.261Z,26.26
2022-08-03T05:58:47.767Z,26.18
2022-08-03T06:01:18.263Z,26.56
2022-08-03T06:03:46.141Z,26.29
2022-08-03T06:06:13.052Z,26.53
2022-08-03T06:08:41.391Z,26.60
2022-08-03T06:11:08.388Z,26.67
2022-08-03T06:13:35.860Z,26.37
2022-08-03T06:16:02.859Z,26.18
2022-08-03T06:18:29.814Z,26.18
2022-08-03T06:20:56.749Z,26.17
2022-08-03T06:23:52.851Z,26.24
2022-08-03T06:26:11.187Z,26.23
2022-08-03T06:28:53.165Z,26.00
2022-08-03T06:31:32.375Z,25.73
2022-08-03T06:34:34.016Z,25.51
2022-08-03T06:36:50.201Z,25.43
2022-08-03T06:39:18.499Z,25.56
2022-08-03T06:41:45.613Z,25.26
2022-08-03T06:44:13.203Z,25.43
2022-08-03T06:46:40.209Z,25.33
2022-08-03T06:49:07.723Z,25.66
2022-08-03T06:52:05.134Z,25.77
2022-08-03T06:54:22.388Z,25.93
2022-08-03T06:56:49.297Z,25.77
2022-08-03T07:00:09.005Z,25.92
2022-08-03T07:02:03.862Z,25.99
2022-08-03T07:04:31.001Z,26.13
2022-08-03T07:06:58.562Z,26.40
2022-08-03T07:09:26.904Z,26.87
2022-08-03T07:11:54.588Z,26.50
2022-08-03T07:14:21.889Z,27.29
2022-08-03T07:16:48.865Z,27.28
2022-08-03T07:19:15.834Z,27.54
2022-08-03T07:21:42.774Z,27.20
2022-08-03T07:24:09.716Z,28.09
2022-08-03T07:26:36.734Z,28.47
2022-08-03T07:29:03.845Z,28.81
2022-08-03T07:31:42.289Z,29.11
2022-08-03T07:34:09.292Z,28.91
2022-08-03T07:36:36.149Z,29.21
2022-08-03T07:39:17.731Z,29.58
2022-08-03T07:41:45.863Z,29.64
2022-08-03T07:44:12.888Z,29.75
2022-08-03T07:46:39.731Z,29.25
2022-08-03T07:49:06.850Z,29.41
2022-08-03T07:51:33.826Z,29.86
2022-08-03T07:54:01.342Z,28.94
2022-08-03T07:56:28.804Z,29.44
2022-08-03T07:58:56.032Z,28.85
2022-08-03T08:01:23.457Z,29.27
2022-08-03T08:03:53.485Z,28.86
2022-08-03T08:06:21.296Z,29.54
2022-08-03T08:08:48.616Z,28.24
2022-08-03T08:11:15.685Z,29.52
2022-08-03T08:13:42.566Z,30.24
2022-08-03T08:16:09.454Z,30.62
2022-08-03T08:18:36.392Z,31.08
2022-08-03T08:21:03.532Z,31.02
2022-08-03T08:23:41.884Z,31.17
2022-08-03T08:26:10.789Z,30.98
2022-08-03T08:28:37.660Z,29.87
2022-08-03T08:31:04.836Z,29.75
2022-08-03T08:34:01.099Z,30.84
2022-08-03T08:36:19.723Z,31.33
2022-08-03T08:38:46.857Z,31.90
2022-08-03T08:41:14.809Z,32.20
2022-08-03T08:43:42.282Z,32.23
2022-08-03T08:46:12.700Z,32.52
2022-08-03T08:48:44.530Z,32.59
2022-08-03T08:51:13.502Z,31.22
2022-08-03T08:53:41.934Z,31.87
2022-08-03T08:56:10.568Z,31.04
2022-08-03T08:58:38.911Z,31.69
2022-08-03T09:01:05.890Z,31.30
2022-08-03T09:03:34.423Z,30.85
2022-08-03T09:06:03.068Z,30.68
2022-08-03T09:08:30.784Z,30.09
2022-08-03T09:10:57.776Z,30.57
2022-08-03T09:13:24.806Z,31.51
2022-08-03T09:16:09.341Z,31.61
2022-08-03T09:18:36.211Z,30.96
2022-08-03T09:21:35.248Z,31.95
2022-08-03T09:24:05.794Z,30.74
2022-08-03T09:26:36.903Z,30.76
2022-08-03T09:29:13.841Z,31.31
2022-08-03T09:31:44.402Z,30.59
2022-08-03T09:34:13.596Z,29.94
2022-08-03T09:36:43.200Z,31.13
2022-08-03T09:39:18.143Z,31.51
2022-08-03T09:42:11.021Z,32.16
2022-08-03T09:44:43.331Z,32.68
2022-08-03T09:47:11.388Z,32.47
2022-08-03T09:49:41.034Z,32.04
2022-08-03T09:52:37.774Z,32.67
2022-08-03T09:56:31.584Z,32.44
2022-08-03T09:58:06.842Z,33.45
2022-08-03T10:00:52.579Z,33.71
2022-08-03T10:03:19.983Z,32.17
2022-08-03T10:05:46.842Z,33.81
2022-08-03T10:08:18.255Z,33.97
2022-08-03T10:10:47.776Z,32.53
2022-08-03T10:13:16.636Z,32.70
2022-08-03T10:16:24.079Z,31.82
2022-08-03T10:18:31.424Z,32.92
2022-08-03T10:21:04.751Z,32.14
2022-08-03T10:23:35.014Z,33.05
2022-08-03T10:26:07.629Z,33.87
2022-08-03T10:28:38.408Z,34.32
2022-08-03T10:31:08.651Z,34.63
2022-08-03T10:33:50.667Z,35.03
2022-08-03T10:36:19.697Z,35.08
2022-08-03T10:38:55.236Z,34.91
2022-08-03T10:41:25.263Z,34.62
2022-08-03T10:44:18.805Z,33.25
2022-08-03T10:46:47.647Z,33.73
2022-08-03T10:49:16.721Z,33.60
2022-08-03T10:52:01.226Z,33.77
2022-08-03T10:54:36.201Z,32.90
2022-08-03T10:57:22.210Z,31.49
2022-08-03T10:59:55.251Z,31.89
2022-08-03T11:02:22.088Z,32.01
2022-08-03T11:05:27.874Z,31.87
2022-08-03T11:08:30.243Z,31.75
2022-08-03T11:11:23.598Z,32.67
2022-08-03T11:14:03.295Z,33.76
2022-08-03T11:16:32.170Z,34.18
2022-08-03T11:19:00.753Z,34.36
2022-08-03T11:21:48.474Z,34.18
2022-08-03T11:24:37.276Z,32.78
2022-08-03T11:27:18.752Z,32.60
2022-08-03T11:30:05.457Z,33.02
2022-08-03T11:32:39.944Z,32.36
2022-08-03T11:35:14.286Z,32.52
2022-08-03T11:38:05.201Z,31.85
2022-08-03T11:40:49.995Z,31.64
2022-08-03T11:43:30.408Z,32.02
2022-08-03T11:46:13.776Z,32.95
2022-08-03T11:49:10.287Z,33.67
2022-08-03T11:51:40.093Z,33.52
2022-08-03T11:54:07.823Z,33.49
2022-08-03T11:56:46.687Z,33.09
2022-08-03T11:59:20.283Z,32.43
2022-08-03T12:01:48.402Z,32.72
2022-08-03T12:04:16.415Z,31.98
2022-08-03T12:07:01.243Z,31.67
2022-08-03T12:09:28.196Z,32.35
2022-08-03T12:11:57.768Z,31.94
2022-08-03T12:14:48.454Z,32.48
2022-08-03T12:17:16.568Z,32.47
2022-08-03T12:19:44.891Z,32.51
2022-08-03T12:22:11.792Z,32.10
2022-08-03T12:24:46.930Z,32.32
2022-08-03T12:27:23.592Z,32.17
2022-08-03T12:29:58.451Z,32.62
2022-08-03T12:32:30.261Z,32.87
2022-08-03T12:35:01.035Z,33.22
2022-08-03T12:37:28.784Z,32.91
2022-08-03T12:40:09.331Z,33.14
2022-08-03T12:42:38.540Z,33.30
2022-08-03T12:45:20.804Z,33.48
2022-08-03T12:48:01.543Z,32.92
2022-08-03T12:50:33.580Z,33.18
2022-08-03T12:53:01.941Z,33.77
2022-08-03T12:55:57.326Z,34.11
2022-08-03T12:58:34.160Z,34.41
2022-08-03T13:01:05.225Z,33.85
2022-08-03T13:03:46.016Z,33.50
2022-08-03T13:06:23.442Z,33.48
2022-08-03T13:09:01.043Z,34.10
2022-08-03T13:11:52.549Z,33.38
2022-08-03T13:14:19.549Z,33.54
2022-08-03T13:16:50.346Z,33.80
2022-08-03T13:19:17.640Z,33.85
2022-08-03T13:22:01.616Z,34.06
2022-08-03T13:24:32.165Z,34.54
2022-08-03T13:26:59.924Z,34.66
2022-08-03T13:29:27.946Z,34.24
2022-08-03T13:31:54.841Z,34.13
2022-08-03T13:34:23.915Z,34.19
2022-08-03T13:37:09.294Z,34.74
2022-08-03T13:39:48.138Z,35.15
2022-08-03T13:42:25.376Z,35.16
2022-08-03T13:44:52.387Z,34.83
2022-08-03T13:47:20.278Z,34.52
2022-08-03T13:49:59.650Z,34.65
2022-08-03T13:52:33.074Z,34.75
2022-08-03T13:55:00.509Z,34.63
2022-08-03T13:58:02.560Z,33.95
2022-08-03T14:00:27.413Z,34.11
2022-08-03T14:03:02.774Z,33.83
2022-08-03T14:05:31.937Z,34.12
2022-08-03T14:08:04.434Z,34.42
2022-08-03T14:10:37.082Z,33.71
2022-08-03T14:13:05.058Z,33.83
2022-08-03T14:15:31.974Z,33.72
2022-08-03T14:18:04.240Z,32.85
2022-08-03T14:20:36.669Z,32.72
2022-08-03T14:23:04.671Z,32.96
2022-08-03T14:25:43.204Z,33.24
2022-08-03T14:28:16.903Z,33.58
2022-08-03T14:30:43.785Z,32.87
2022-08-03T14:33:10.615Z,33.05
2022-08-03T14:35:37.516Z,33.05
2022-08-03T14:38:05.090Z,33.13
2022-08-03T14:40:36.476Z,32.85
2022-08-03T14:43:03.345Z,32.72
2022-08-03T14:45:30.234Z,32.69
2022-08-03T14:50:30.562Z,32.88
2022-08-03T14:50:50.253Z,32.68
2022-08-03T14:53:18.281Z,32.50
2022-08-03T14:55:51.138Z,32.37
2022-08-03T14:58:22.696Z,32.49
2022-08-03T15:00:50.910Z,32.71
2022-08-03T15:03:21.640Z,32.25
2022-08-03T15:05:49.421Z,32.40
2022-08-03T15:08:16.388Z,32.13
2022-08-03T15:10:44.526Z,31.96
2022-08-03T15:13:17.147Z,31.89
2022-08-03T15:15:44.146Z,32.08
2022-08-03T15:18:11.201Z,31.90
2022-08-03T15:20:46.930Z,32.03
2022-08-03T15:23:15.410Z,31.91
2022-08-03T15:26:03.664Z,31.90
2022-08-03T15:28:31.658Z,31.69
2022-08-03T15:30:58.887Z,31.80
2022-08-03T15:33:25.826Z,31.76
2022-08-03T15:35:53.370Z,31.80
2022-08-03T15:38:25.972Z,31.81
2022-08-03T15:40:57.012Z,31.63
2022-08-03T15:43:24.032Z,31.23
2022-08-03T15:46:19.005Z,31.42
2022-08-03T15:48:38.871Z,31.49
2022-08-03T15:51:06.390Z,31.50
2022-08-03T15:53:33.740Z,31.39
2022-08-03T15:56:03.344Z,31.38
2022-08-03T15:59:03.142Z,31.26
2022-08-03T16:01:21.353Z,31.02
2022-08-03T16:03:48.618Z,31.04
2022-08-03T16:06:15.964Z,31.10
2022-08-03T16:08:43.736Z,31.06
2022-08-03T16:11:11.248Z,30.96
2022-08-03T16:14:13.656Z,30.97
2022-08-03T16:16:25.030Z,30.89
2022-08-03T16:18:52.242Z,30.88
2022-08-03T16:21:20.024Z,30.84
2022-08-03T16:23:48.921Z,30.84
2022-08-03T16:26:15.791Z,30.82
2022-08-03T16:28:42.901Z,30.73
2022-08-03T16:31:09.830Z,30.73
2022-08-03T16:33:36.713Z,30.67
2022-08-03T16:36:04.038Z,30.61
2022-08-03T16:38:31.334Z,30.59
2022-08-03T16:40:58.494Z,30.56
2022-08-03T16:43:25.450Z,30.55
2022-08-03T16:45:52.908Z,30.49
2022-08-03T16:48:20.252Z,30.44
2022-08-03T16:50:48.993Z,30.38
2022-08-03T16:53:17.181Z,30.38
2022-08-03T16:56:00.416Z,30.32
2022-08-03T16:58:41.763Z,30.25
2022-08-03T17:01:24.071Z,30.19
2022-08-03T17:04:02.046Z,30.13
2022-08-03T17:06:35.650Z,30.08
2022-08-03T17:09:09.219Z,30.00
2022-08-03T17:11:44.174Z,29.95
2022-08-03T17:14:14.853Z,29.88
2022-08-03T17:16:52.152Z,29.82
2022-08-03T17:19:24.060Z,29.75
2022-08-03T17:22:04.903Z,29.71
2022-08-03T17:24:33.386Z,29.66
2022-08-03T17:27:08.556Z,29.56
2022-08-03T17:29:45.227Z,29.48
2022-08-03T17:32:18.433Z,29.42
2022-08-03T17:34:49.260Z,29.35
2022-08-03T17:37:27.295Z,29.26
2022-08-03T17:40:04.161Z,29.17
2022-08-03T17:42:33.207Z,29.05
2022-08-03T17:45:03.504Z,28.96
2022-08-03T17:47:41.215Z,28.86
2022-08-03T17:50:23.637Z,28.75
2022-08-03T17:53:07.196Z,28.62
2022-08-03T17:55:57.600Z,28.50
2022-08-03T17:58:55.514Z,28.36
2022-08-03T18:02:11.540Z,28.24
2022-08-03T18:05:00.737Z,28.18
2022-08-03T18:07:41.713Z,28.08
2022-08-03T18:10:11.250Z,27.99
2022-08-03T18:12:52.887Z,27.90
2022-08-03T18:15:51.535Z,27.76
2022-08-03T18:18:29.220Z,27.68
2022-08-03T18:21:04.617Z,27.56
2022-08-03T18:23:36.729Z,27.44
2022-08-03T18:26:12.080Z,27.32
2022-08-03T18:28:39.448Z,27.27
2022-08-03T18:31:09.737Z,27.17
2022-08-03T18:34:16.594Z,27.10
2022-08-03T18:36:30.138Z,27.01
2022-08-03T18:39:00.062Z,26.93
2022-08-03T18:41:33.774Z,26.82
2022-08-03T18:44:07.606Z,26.66
2022-08-03T18:46:50.723Z,26.49
2022-08-03T18:49:39.975Z,26.38
2022-08-03T18:52:19.695Z,26.21
2022-08-03T18:55:20.642Z,26.11
2022-08-03T18:58:04.314Z,26.03
2022-08-03T19:00:54.190Z,26.03
2022-08-03T19:03:24.513Z,26.00
2022-08-03T19:09:07.279Z,25.78
2022-08-03T19:12:14.442Z,25.57
2022-08-03T19:14:30.430Z,25.17
2022-08-03T19:17:07.714Z,25.29
2022-08-03T19:19:43.970Z,25.27
2022-08-03T19:22:15.801Z,24.99
2022-08-03T19:24:45.913Z,24.91
2022-08-03T19:27:13.477Z,24.98
2022-08-03T19:29:58.976Z,24.98
2022-08-03T19:32:32.285Z,25.02
2022-08-03T19:35:01.491Z,25.01
2022-08-03T19:37:38.305Z,25.01
2022-08-03T19:40:12.457Z,24.91
2022-08-03T19:42:43.139Z,24.90
2022-08-03T19:45:14.360Z,24.87
2022-08-03T19:48:09.743Z,24.82
2022-08-03T19:50:38.225Z,24.77
2022-08-03T19:53:13.005Z,24.74
2022-08-03T19:55:48.785Z,24.71
2022-08-03T19:58:17.727Z,24.65
2022-08-03T20:00:55.543Z,24.45
2022-08-03T20:03:24.892Z,24.36
2022-08-03T20:05:55.020Z,24.29
2022-08-03T20:08:28.089Z,24.30
2022-08-03T20:10:55.244Z,24.24
2022-08-03T20:13:22.179Z,24.21
2022-08-03T20:15:55.261Z,24.15
2022-08-03T20:18:24.056Z,24.13
2022-08-03T20:20:52.523Z,24.17
2022-08-03T20:23:20.313Z,24.19
2022-08-03T20:25:58.142Z,24.01
2022-08-03T20:28:35.587Z,23.46
2022-08-03T20:31:18.850Z,22.95
2022-08-03T20:33:48.785Z,23.02
2022-08-03T20:36:17.798Z,23.11
2022-08-03T20:38:47.720Z,23.12
2022-08-03T20:41:16.233Z,23.08
2022-08-03T20:43:43.832Z,23.17
2022-08-03T20:46:35.336Z,23.27
2022-08-03T20:48:59.059Z,23.32
2022-08-03T20:51:49.498Z,23.30
2022-08-03T20:54:28.770Z,23.27
2022-08-03T20:56:58.113Z,23.22
2022-08-03T20:59:35.053Z,23.13
2022-08-03T21:02:13.933Z,23.10
2022-08-03T21:04:47.325Z,23.10
2022-08-03T21:07:24.274Z,23.08
2022-08-03T21:09:55.453Z,23.01
2022-08-03T21:12:38.262Z,22.91
2022-08-03T21:13:08.789Z,25.90
2022-08-03T21:15:09.590Z,22.87
2022-08-03T21:17:58.965Z,22.85
2022-08-03T21:20:31.292Z,22.78
2022-08-03T21:22:59.832Z,22.71
2022-08-03T21:25:31.539Z,22.68
2022-08-03T21:28:00.085Z,22.66
2022-08-03T21:30:29.984Z,22.62
2022-08-03T21:32:58.023Z,22.58
2022-08-03T21:35:25.472Z,22.45
2022-08-03T21:38:11.730Z,22.34
2022-08-03T21:40:40.652Z,22.38
2022-08-03T21:43:08.060Z,22.31
2022-08-03T21:45:47.442Z,22.25
2022-08-03T21:48:14.514Z,22.15
2022-08-03T21:50:42.713Z,22.12
2022-08-03T21:53:10.648Z,22.06
2022-08-03T21:55:44.663Z,22.01
2022-08-03T21:58:13.962Z,21.94
2022-08-03T22:00:42.961Z,21.89
2022-08-03T22:03:17.264Z,21.85
2022-08-03T22:05:45.086Z,21.78
2022-08-03T22:08:14.968Z,21.74
2022-08-03T22:10:45.815Z,21.69
2022-08-03T22:13:14.460Z,21.61
2022-08-03T22:15:41.456Z,21.65
2022-08-03T22:18:09.180Z,21.62
2022-08-03T22:20:36.174Z,21.53
2022-08-03T22:23:04.960Z,21.52
2022-08-03T22:25:34.035Z,21.35
2022-08-03T22:28:05.140Z,21.40
2022-08-03T22:30:33.289Z,21.24
2022-08-03T22:33:01.727Z,21.35
2022-08-03T22:35:28.812Z,21.44
2022-08-03T22:37:57.910Z,21.22
2022-08-03T22:40:26.584Z,21.10
2022-08-03T22:42:53.571Z,21.15
2022-08-03T22:46:08.485Z,21.22
2022-08-03T22:48:08.285Z,21.32
2022-08-03T22:50:35.671Z,21.20
2022-08-03T22:53:02.943Z,20.87
2022-08-03T22:55:30.009Z,20.90
2022-08-03T22:57:56.895Z,20.36
2022-08-03T23:00:24.619Z,20.41
2022-08-03T23:02:52.197Z,20.21
2022-08-03T23:06:00.305Z,19.96
2022-08-03T23:08:21.804Z,20.15
2022-08-03T23:10:50.506Z,20.23
2022-08-03T23:13:18.047Z,20.42
2022-08-03T23:15:52.049Z,20.11
2022-08-03T23:18:19.545Z,20.29
2022-08-03T23:20:50.615Z,20.41
2022-08-03T23:23:19.770Z,20.31
2022-08-03T23:25:48.979Z,20.35
2022-08-03T23:28:19.172Z,20.52
2022-08-03T23:30:46.813Z,20.54
2022-08-03T23:33:14.987Z,20.64
2022-08-03T23:36:28.529Z,20.59
2022-08-03T23:38:45.097Z,20.64
2022-08-03T23:41:12.625Z,20.66
2022-08-03T23:43:51.326Z,20.55
2022-08-03T23:46:21.787Z,20.64
2022-08-03T23:48:48.688Z,20.47
2022-08-03T23:51:38.412Z,20.40
2022-08-03T23:54:49.949Z,20.39
2022-08-03T23:57:23.051Z,20.27
2022-08-03T23:59:50.629Z,20.26
